Time;durP1;ratioP1;P1;durP2;ratioP2;P2;SDS_P1;SDS_P2;PMS_P1;PMS_P2;Temp;Humidity;BMP_temperature;BMP_pressure;BME280_temperature;BME280_humidity;BME280_pressure;Samples;Min_cycle;Max_cycle;Signal;HPM_P1;HPM_P2
2022/04/10 00:00:15;;;;;;;7.28;1.90;;;;;;;3.41;100.00;101872.59;5016231;28;20160;-67
2022/04/10 00:02:41;;;;;;;9.48;2.10;;;;;;;3.35;100.00;101879.22;5016060;28;20037;-67
2022/04/10 00:05:07;;;;;;;10.07;2.78;;;;;;;3.41;100.00;101875.19;5015886;28;20493;-67
2022/04/10 00:07:32;;;;;;;12.68;2.00;;;;;;;3.34;100.00;101872.19;5015446;28;20049;-67
2022/04/10 00:09:58;;;;;;;14.40;2.15;;;;;;;3.33;100.00;101875.59;5016261;28;20038;-67
2022/04/10 00:12:23;;;;;;;10.38;3.17;;;;;;;3.33;100.00;101875.59;5016104;28;20025;-67
2022/04/10 00:14:49;;;;;;;9.75;3.67;;;;;;;3.33;100.00;101874.72;5016062;28;20405;-68
2022/04/10 00:17:14;;;;;;;12.38;2.50;;;;;;;3.32;100.00;101870.31;5015878;28;20034;-67
2022/04/10 00:19:40;;;;;;;15.70;2.88;;;;;;;3.30;100.00;101870.22;5015264;28;20083;-67
2022/04/10 00:22:06;;;;;;;9.57;2.58;;;;;;;3.29;100.00;101868.41;5016144;28;20033;-67
2022/04/10 00:24:31;;;;;;;8.63;3.20;;;;;;;3.26;100.00;101868.22;5016158;28;20021;-68
2022/04/10 00:26:57;;;;;;;8.73;2.13;;;;;;;3.23;100.00;101867.13;5015929;28;20021;-67
2022/04/10 00:29:23;;;;;;;11.25;2.13;;;;;;;3.19;100.00;101876.47;5015359;28;20149;-67
2022/04/10 00:31:48;;;;;;;6.72;2.60;;;;;;;3.16;100.00;101871.03;5014273;28;20096;-68
2022/04/10 00:34:14;;;;;;;13.82;2.22;;;;;;;3.16;100.00;101871.03;5015401;28;20032;-67
2022/04/10 00:36:39;;;;;;;10.75;2.47;;;;;;;3.20;100.00;101862.63;5015332;28;20486;-67
2022/04/10 00:39:05;;;;;;;10.60;2.53;;;;;;;3.12;100.00;101859.56;5013522;28;20210;-67
2022/04/10 00:41:30;;;;;;;8.90;1.88;;;;;;;3.11;100.00;101867.28;5015305;28;20169;-67
2022/04/10 00:44:06;;;;;;;10.50;2.10;;;;;;;3.10;100.00;101862.88;5015644;28;20026;-66
2022/04/10 00:46:32;;;;;;;13.55;2.45;;;;;;;3.07;100.00;101866.16;5018368;28;20034;-67
2022/04/10 00:48:57;;;;;;;9.60;2.00;;;;;;;3.10;100.00;101865.47;5014898;28;20030;-66
2022/04/10 00:51:43;;;;;;;6.05;2.28;;;;;;;3.07;100.00;101865.28;5015525;28;20440;-67
2022/04/10 00:54:17;;;;;;;11.80;2.72;;;;;;;2.98;100.00;101853.47;5014909;28;20084;-66
2022/04/10 00:56:45;;;;;;;;;;;;;;;3.00;100.00;101853.59;5015550;28;20044;-67
2022/04/10 00:59:12;;;;;;;8.48;2.30;;;;;;;2.97;100.00;101861.16;5015317;28;19932;-66
2022/04/10 01:01:40;;;;;;;11.70;1.85;;;;;;;2.96;100.00;101859.41;5015110;28;20034;-67
2022/04/10 01:04:06;;;;;;;13.43;2.83;;;;;;;2.91;100.00;101859.09;5013591;28;20033;-67
2022/04/10 01:06:35;;;;;;;7.93;1.80;;;;;;;2.85;100.00;101853.50;5014853;28;20030;-66
2022/04/10 01:09:02;;;;;;;6.70;1.63;;;;;;;2.86;100.00;101863.06;5014952;28;20025;-67
2022/04/10 01:11:28;;;;;;;7.40;2.63;;;;;;;2.81;100.00;101868.00;5015119;28;20034;-67
2022/04/10 01:13:54;;;;;;;19.08;2.20;;;;;;;2.82;100.00;101868.88;4997438;28;20443;-66
2022/04/10 01:16:21;;;;;;;7.60;2.10;;;;;;;2.79;100.00;101866.09;5014592;28;20029;-66
2022/04/10 01:18:47;;;;;;;10.10;2.15;;;;;;;2.79;100.00;101869.59;5014590;28;20112;-67
2022/04/10 01:21:20;;;;;;;15.00;2.47;;;;;;;2.78;100.00;101870.41;5014330;28;20731;-67
2022/04/10 01:23:47;;;;;;;5.97;2.30;;;;;;;2.74;100.00;101875.28;5012737;28;20037;-67
2022/04/10 01:26:12;;;;;;;11.07;2.60;;;;;;;2.79;100.00;101879.09;4997318;28;20030;-66
2022/04/10 01:28:57;;;;;;;9.75;1.77;;;;;;;2.76;100.00;101873.69;5014959;28;20043;-66
2022/04/10 01:31:22;;;;;;;9.23;2.17;;;;;;;2.74;100.00;101876.22;5014643;28;20453;-67
2022/04/10 01:33:48;;;;;;;7.75;2.33;;;;;;;2.76;100.00;101878.91;5014147;28;20049;-66
2022/04/10 01:36:14;;;;;;;6.72;2.10;;;;;;;2.74;100.00;101881.41;5000128;28;20473;-66
2022/04/10 01:38:42;;;;;;;8.95;2.03;;;;;;;2.73;100.00;101878.69;5014043;28;20067;-66
2022/04/10 01:41:12;;;;;;;10.07;2.00;;;;;;;2.74;100.00;101880.47;5014564;28;20029;-67
2022/04/10 01:43:47;;;;;;;5.20;1.98;;;;;;;2.74;100.00;101880.47;5014311;28;20088;-67
2022/04/10 01:46:13;;;;;;;12.10;2.33;;;;;;;2.76;100.00;101873.69;5014282;28;20532;-67
2022/04/10 01:48:39;;;;;;;7.75;2.40;;;;;;;2.73;100.00;101883.88;5014003;28;20061;-67
2022/04/10 01:51:04;;;;;;;6.15;2.17;;;;;;;2.73;100.00;101890.00;5014080;28;20474;-66
2022/04/10 01:53:30;;;;;;;11.38;2.88;;;;;;;2.73;100.00;101889.06;5014045;28;20101;-66
2022/04/10 01:55:55;;;;;;;7.10;2.35;;;;;;;2.72;100.00;101883.00;5014405;28;20026;-66
2022/04/10 01:58:20;;;;;;;9.45;1.95;;;;;;;2.68;100.00;101888.78;5014314;28;20109;-66
2022/04/10 02:00:46;;;;;;;12.07;2.55;;;;;;;2.68;100.00;101894.88;5012368;28;20437;-66
2022/04/10 02:03:11;;;;;;;13.65;2.13;;;;;;;2.67;100.00;101890.50;5013898;28;20121;-66
2022/04/10 02:05:36;;;;;;;3.58;2.13;;;;;;;2.66;100.00;101883.50;5013532;28;20013;-67
2022/04/10 02:08:02;;;;;;;12.73;2.35;;;;;;;2.67;100.00;101895.69;5014017;28;20026;-67
2022/04/10 02:10:27;;;;;;;12.43;2.05;;;;;;;2.63;100.00;101888.50;5013428;28;20076;-67
2022/04/10 02:12:52;;;;;;;13.10;2.30;;;;;;;2.62;100.00;101891.88;4996296;28;20033;-67
2022/04/10 02:15:17;;;;;;;9.07;2.17;;;;;;;2.57;100.00;101888.09;5013654;28;20022;-67
2022/04/10 02:17:43;;;;;;;11.25;3.00;;;;;;;2.55;100.00;101891.38;4995993;28;20033;-66
2022/04/10 02:20:08;;;;;;;9.27;2.50;;;;;;;2.53;100.00;101899.06;5013406;28;20073;-67
2022/04/10 02:22:34;;;;;;;8.40;2.35;;;;;;;2.50;100.00;101901.47;5013690;28;20061;-67
2022/04/10 02:24:59;;;;;;;9.45;2.25;;;;;;;2.47;100.00;101891.78;5013206;28;20453;-66
2022/04/10 02:27:24;;;;;;;13.73;2.75;;;;;;;2.44;100.00;101904.56;5012645;28;20021;-66
2022/04/10 02:29:50;;;;;;;7.03;2.63;;;;;;;2.47;100.00;101896.06;5013529;28;20022;-67
2022/04/10 02:32:15;;;;;;;7.50;1.90;;;;;;;2.46;100.00;101899.47;5013677;28;20022;-66
2022/04/10 02:34:40;;;;;;;6.30;2.00;;;;;;;2.46;100.00;101900.38;5013448;28;20029;-67
2022/04/10 02:37:06;;;;;;;10.57;2.35;;;;;;;2.51;100.00;101898.09;5014975;28;20041;-66
2022/04/10 02:39:31;;;;;;;6.93;2.15;;;;;;;2.46;100.00;101899.47;5013095;28;20025;-67
2022/04/10 02:41:56;;;;;;;5.70;1.98;;;;;;;2.47;100.00;101899.56;5018043;28;20465;-67
2022/04/10 02:44:22;;;;;;;6.75;1.88;;;;;;;2.46;100.00;101894.28;5012672;28;20034;-66
2022/04/10 02:46:47;;;;;;;7.70;1.77;;;;;;;2.48;100.00;101895.25;5013260;28;20018;-66
2022/04/10 02:49:13;;;;;;;8.23;2.30;;;;;;;2.53;100.00;101901.66;5013428;28;20444;-67
2022/04/10 02:51:38;;;;;;;5.55;2.17;;;;;;;2.47;100.00;101906.44;5012808;28;20021;-66
2022/04/10 02:54:04;;;;;;;7.85;1.80;;;;;;;2.50;100.00;101901.47;5018137;28;20539;-66
2022/04/10 02:56:29;;;;;;;10.77;2.50;;;;;;;2.51;100.00;101901.56;5025003;28;20025;-67
2022/04/10 02:58:54;;;;;;;2.75;1.75;;;;;;;2.45;100.00;101900.25;5025452;28;20139;-66
2022/04/10 03:01:20;;;;;;;5.43;1.83;;;;;;;2.42;100.00;101905.25;5027817;28;20029;-67
2022/04/10 03:03:45;;;;;;;4.95;1.80;;;;;;;2.35;100.00;101902.25;5023958;28;20100;-67
2022/04/10 03:06:10;;;;;;;5.22;1.83;;;;;;;2.32;100.00;101904.66;5016468;28;20029;-66
2022/04/10 03:08:35;;;;;;;6.20;2.22;;;;;;;2.33;100.00;101913.31;5000803;28;20422;-66
2022/04/10 03:11:03;;;;;;;7.10;2.05;;;;;;;2.35;100.00;101912.63;5024505;28;20053;-66
2022/04/10 03:13:29;;;;;;;11.05;2.83;;;;;;;2.40;100.00;101909.44;5022060;28;20027;-66
2022/04/10 03:15:54;;;;;;;10.77;1.85;;;;;;;2.47;100.00;101909.03;5022546;28;20105;-66
2022/04/10 03:18:19;;;;;;;6.82;1.73;;;;;;;2.55;100.00;101915.69;5021404;28;20029;-66
2022/04/10 03:20:45;;;;;;;9.80;1.75;;;;;;;2.55;100.00;101907.88;5025556;28;20492;-67
2022/04/10 03:23:10;;;;;;;6.65;1.77;;;;;;;2.58;100.00;101904.56;5017394;28;20092;-66
2022/04/10 03:25:36;;;;;;;4.70;1.73;;;;;;;2.60;100.00;101914.25;5008230;28;20067;-67
2022/04/10 03:28:02;;;;;;;5.93;1.60;;;;;;;2.57;100.00;101923.56;5018501;28;20128;-66
2022/04/10 03:30:27;;;;;;;6.03;2.20;;;;;;;2.59;100.00;101930.66;5017001;28;20025;-67
2022/04/10 03:32:52;;;;;;;8.10;1.40;;;;;;;2.54;100.00;101924.25;5015047;28;20022;-67
2022/04/10 03:35:18;;;;;;;6.93;2.20;;;;;;;2.51;100.00;101931.88;5015437;28;20013;-66
2022/04/10 03:37:43;;;;;;;6.03;1.70;;;;;;;2.50;100.00;101928.34;5012850;28;20030;-66
2022/04/10 03:40:09;;;;;;;5.38;1.88;;;;;;;2.50;100.00;101937.84;5010592;28;20034;-66
2022/04/10 03:42:39;;;;;;;5.30;1.70;;;;;;;2.44;100.00;101927.94;5012376;28;20026;-67
2022/04/10 03:45:09;;;;;;;11.65;2.28;;;;;;;2.43;100.00;101928.75;5010955;28;20046;-67
2022/04/10 03:47:34;;;;;;;6.28;1.70;;;;;;;2.39;100.00;101928.41;5013135;28;20543;-66
2022/04/10 03:50:00;;;;;;;14.27;1.98;;;;;;;2.36;100.00;101918.72;5015804;28;20101;-66
2022/04/10 03:52:25;;;;;;;10.18;2.65;;;;;;;2.38;100.00;101926.63;5010484;28;20039;-67
2022/04/10 03:54:50;;;;;;;6.05;1.98;;;;;;;2.30;100.00;101929.59;5025088;28;20051;-66
2022/04/10 03:57:16;;;;;;;7.65;1.85;;;;;;;2.21;100.00;101928.06;5025712;28;20057;-66
2022/04/10 03:59:41;;;;;;;8.98;1.90;;;;;;;2.19;100.00;101934.06;5024021;28;20584;-66
2022/04/10 04:02:06;;;;;;;4.90;2.00;;;;;;;2.19;100.00;101935.78;5020018;28;20033;-66
2022/04/10 04:04:31;;;;;;;10.80;2.22;;;;;;;2.13;100.00;101944.03;5028157;28;20026;-67
2022/04/10 04:06:57;;;;;;;6.07;1.60;;;;;;;2.10;100.00;101942.94;5023577;28;20036;-66
2022/04/10 04:09:23;;;;;;;10.25;1.35;;;;;;;2.10;100.00;101945.53;5027089;28;20055;-66
2022/04/10 04:11:48;;;;;;;11.10;1.42;;;;;;;2.09;100.00;101951.50;5027271;28;20021;-67
2022/04/10 04:14:13;;;;;;;6.15;1.60;;;;;;;2.04;100.00;101947.72;5022956;28;20486;-66
2022/04/10 04:16:39;;;;;;;7.68;1.73;;;;;;;2.01;100.00;101951.88;5021850;28;20032;-66
2022/04/10 04:19:05;;;;;;;12.40;2.47;;;;;;;2.02;100.00;101953.69;5020783;28;20502;-68
2022/04/10 04:21:30;;;;;;;7.70;1.85;;;;;;;2.00;100.00;101944.88;5014761;28;20099;-67
2022/04/10 04:23:56;;;;;;;9.15;2.47;;;;;;;1.97;100.00;101955.06;5026587;28;20136;-67
2022/04/10 04:26:21;;;;;;;10.70;1.63;;;;;;;1.90;100.00;101946.72;5022555;28;20026;-66
2022/04/10 04:28:46;;;;;;;4.25;1.75;;;;;;;1.83;100.00;101950.59;5026627;28;20377;-67
2022/04/10 04:31:11;;;;;;;6.22;1.35;;;;;;;1.80;100.00;101955.59;5024159;28;20053;-67
2022/04/10 04:33:37;;;;;;;6.25;1.52;;;;;;;1.72;100.00;101952.44;5031182;28;20018;-67
2022/04/10 04:36:02;;;;;;;11.82;3.50;;;;;;;1.79;100.00;101953.78;5020133;28;20456;-67
2022/04/10 04:38:27;;;;;;;9.45;2.42;;;;;;;1.80;100.00;101963.38;5028720;28;20088;-67
2022/04/10 04:40:53;;;;;;;6.53;3.00;;;;;;;1.75;100.00;101964.72;5027144;28;20469;-67
2022/04/10 04:43:18;;;;;;;9.82;2.50;;;;;;;1.70;100.00;101964.41;5025359;28;20140;-67
2022/04/10 04:45:43;;;;;;;11.40;3.00;;;;;;;1.75;100.00;101977.69;5030851;28;20033;-67
2022/04/10 04:48:09;;;;;;;8.68;2.28;;;;;;;1.71;100.00;101979.19;5018093;28;20103;-67
2022/04/10 04:50:34;;;;;;;7.60;2.30;;;;;;;1.77;100.00;101981.31;5031723;28;20112;-66
2022/04/10 04:52:59;;;;;;;9.70;3.55;;;;;;;1.76;100.00;101974.31;5022843;28;20033;-66
2022/04/10 04:55:25;;;;;;;15.98;3.30;;;;;;;1.68;100.00;101982.47;5028391;28;20040;-66
2022/04/10 04:57:50;;;;;;;9.80;3.60;;;;;;;1.65;100.00;101987.44;5026528;28;20504;-67
2022/04/10 05:00:16;;;;;;;12.98;3.08;;;;;;;1.61;100.00;101982.81;5028245;28;20026;-66
2022/04/10 05:02:41;;;;;;;6.72;2.08;;;;;;;1.59;100.00;101987.00;5022997;28;20172;-66
2022/04/10 05:05:07;;;;;;;9.80;2.22;;;;;;;1.53;100.00;101989.16;5013243;28;20041;-68
2022/04/10 05:07:33;;;;;;;12.18;2.20;;;;;;;1.57;100.00;101991.16;5020195;28;20069;-67
2022/04/10 05:09:58;;;;;;;5.13;1.92;;;;;;;1.61;100.00;101987.13;5025273;28;20497;-67
2022/04/10 05:12:24;;;;;;;4.10;2.10;;;;;;;1.68;100.00;101986.75;5019419;28;20478;-67
2022/04/10 05:14:49;;;;;;;6.82;3.10;;;;;;;1.64;100.00;101996.03;5005359;28;20025;-67
2022/04/10 05:17:14;;;;;;;8.40;2.50;;;;;;;1.65;100.00;101989.13;5022097;28;20032;-67
2022/04/10 05:19:40;;;;;;;9.75;2.22;;;;;;;1.64;100.00;101995.09;5029863;28;20057;-68
2022/04/10 05:22:05;;;;;;;8.93;2.63;;;;;;;1.65;100.00;102005.59;5027208;28;20035;-67
2022/04/10 05:24:30;;;;;;;8.00;2.72;;;;;;;1.68;100.00;102002.31;5029838;28;20531;-67
2022/04/10 05:26:56;;;;;;;10.82;3.08;;;;;;;1.71;100.00;102002.56;5016025;28;20516;-67
2022/04/10 05:29:21;;;;;;;8.98;2.50;;;;;;;1.77;100.00;102009.88;5025047;28;20017;-67
2022/04/10 05:31:46;;;;;;;7.35;2.47;;;;;;;1.83;100.00;102012.88;5030206;28;20034;-68
2022/04/10 05:34:12;;;;;;;8.85;2.60;;;;;;;1.91;100.00;102014.31;5027654;28;20022;-68
2022/04/10 05:36:37;;;;;;;7.55;3.53;;;;;;;1.95;100.00;102018.03;5025030;28;20025;-67
2022/04/10 05:39:02;;;;;;;15.27;5.47;;;;;;;1.97;100.00;102021.66;5026042;28;20033;-67
2022/04/10 05:41:28;;;;;;;6.10;2.70;;;;;;;2.01;100.00;102024.56;5023771;28;20040;-67
2022/04/10 05:43:53;;;;;;;10.52;2.92;;;;;;;2.07;100.00;102007.63;5006251;28;20401;-67
2022/04/10 05:46:18;;;;;;;8.50;2.60;;;;;;;2.10;100.00;102013.03;5018845;28;20025;-67
2022/04/10 05:48:45;;;;;;;5.90;2.00;;;;;;;2.15;100.00;102016.84;5029340;28;20052;-68
2022/04/10 05:51:10;;;;;;;12.73;2.33;;;;;;;2.23;100.00;102017.41;5028271;28;20029;-67
2022/04/10 05:53:35;;;;;;;6.95;1.92;;;;;;;2.35;100.00;102018.25;5029298;28;20090;-68
2022/04/10 05:56:01;;;;;;;10.18;1.98;;;;;;;2.53;100.00;102028.97;5018738;28;20116;-67
2022/04/10 05:58:26;;;;;;;4.30;1.98;;;;;;;2.71;100.00;102031.91;5028691;28;20025;-67
2022/04/10 06:00:52;;;;;;;7.72;1.83;;;;;;;3.01;100.00;102033.09;5020845;28;20041;-67
2022/04/10 06:03:18;;;;;;;6.63;1.50;;;;;;;3.26;100.00;102034.69;5014935;28;20026;-67
2022/04/10 06:05:43;;;;;;;7.30;1.63;;;;;;;3.37;100.00;102033.69;5019401;28;20032;-68
2022/04/10 06:08:08;;;;;;;8.18;1.30;;;;;;;3.50;100.00;102031.88;5032339;28;20436;-67
2022/04/10 06:10:34;;;;;;;10.43;1.67;;;;;;;3.59;100.00;102037.69;5026716;28;20033;-68
2022/04/10 06:13:07;;;;;;;6.80;1.70;;;;;;;3.81;100.00;102039.06;5015594;28;20018;-67
2022/04/10 06:15:32;;;;;;;3.60;1.20;;;;;;;3.96;100.00;102041.72;5024525;28;20025;-67
2022/04/10 06:17:57;;;;;;;6.25;1.98;;;;;;;4.09;100.00;102038.19;5015357;28;20295;-67
2022/04/10 06:20:23;;;;;;;4.93;1.10;;;;;;;4.13;100.00;102042.78;5015981;28;20397;-67
2022/04/10 06:22:48;;;;;;;5.38;1.20;;;;;;;4.21;99.77;102044.16;4998590;28;20568;-68
2022/04/10 06:25:13;;;;;;;5.85;1.92;;;;;;;4.33;98.93;102044.91;5027349;28;20042;-67
2022/04/10 06:27:38;;;;;;;5.45;1.50;;;;;;;4.48;98.25;102057.09;5024011;28;20017;-67
2022/04/10 06:30:04;;;;;;;10.45;1.40;;;;;;;4.56;97.99;102055.84;5016340;28;20026;-67
2022/04/10 06:32:30;;;;;;;4.75;1.23;;;;;;;4.62;97.93;102058.81;5006138;28;20043;-68
2022/04/10 06:34:55;;;;;;;5.40;1.25;;;;;;;4.62;99.33;102057.91;5021753;28;20053;-68
2022/04/10 06:37:20;;;;;;;5.20;1.50;;;;;;;4.58;99.80;102077.69;5020852;28;20025;-68
2022/04/10 06:39:45;;;;;;;7.88;1.67;;;;;;;4.55;100.00;102078.38;5027932;28;20048;-68
2022/04/10 06:42:11;;;;;;;14.07;1.60;;;;;;;4.47;100.00;102079.63;5021725;28;20025;-67
2022/04/10 06:44:37;;;;;;;6.28;1.58;;;;;;;4.43;100.00;102088.06;5015756;28;20370;-68
2022/04/10 06:47:03;;;;;;;8.43;1.83;;;;;;;4.40;100.00;102095.69;5021293;28;20495;-67
2022/04/10 06:49:28;;;;;;;10.68;1.40;;;;;;;4.37;100.00;102104.22;5022362;28;20026;-67
2022/04/10 06:51:53;;;;;;;8.88;1.83;;;;;;;4.37;100.00;102101.63;5018766;28;20053;-68
2022/04/10 06:54:19;;;;;;;7.93;2.45;;;;;;;4.36;100.00;102098.94;5018818;28;20038;-68
2022/04/10 06:56:44;;;;;;;6.35;1.80;;;;;;;4.32;100.00;102107.34;5022911;28;20029;-67
2022/04/10 06:59:10;;;;;;;7.05;1.80;;;;;;;4.32;100.00;102108.25;5006743;28;20461;-67
2022/04/10 07:01:35;;;;;;;15.05;2.58;;;;;;;4.33;100.00;102112.66;5030897;28;20495;-66
2022/04/10 07:04:01;;;;;;;11.38;2.90;;;;;;;4.36;100.00;102117.16;5021513;28;20029;-71
2022/04/10 07:06:26;;;;;;;14.30;2.30;;;;;;;4.38;100.00;102111.25;5007321;28;20021;-72
2022/04/10 07:08:52;;;;;;;9.35;2.33;;;;;;;4.39;100.00;102113.06;5018960;28;20160;-71
2022/04/10 07:11:17;;;;;;;9.50;2.10;;;;;;;4.42;100.00;102121.84;5029724;28;20036;-71
2022/04/10 07:13:42;;;;;;;7.45;1.52;;;;;;;4.46;100.00;102118.63;5022364;28;20431;-71
2022/04/10 07:16:08;;;;;;;6.82;2.58;;;;;;;4.54;100.00;102112.19;5009159;28;20116;-71
2022/04/10 07:18:33;;;;;;;9.23;1.58;;;;;;;4.58;100.00;102119.38;5009025;28;20148;-71
2022/04/10 07:20:59;;;;;;;9.77;1.58;;;;;;;4.63;100.00;102119.69;4987997;28;20088;-71
2022/04/10 07:23:43;;;;;;;9.07;1.45;;;;;;;4.68;100.00;102121.75;4993534;28;20032;-71
2022/04/10 07:26:14;;;;;;;14.18;1.90;;;;;;;4.71;100.00;102119.34;4993280;28;20034;-71
2022/04/10 07:28:40;;;;;;;3.80;1.08;;;;;;;4.80;100.00;102125.91;4990571;28;20034;-71
2022/04/10 07:31:07;;;;;;;3.33;1.27;;;;;;;4.92;100.00;102129.25;4992103;28;20069;-70
2022/04/10 07:33:32;;;;;;;9.00;1.40;;;;;;;4.99;100.00;102136.66;5006770;28;20550;-70
2022/04/10 07:35:58;;;;;;;4.95;1.65;;;;;;;4.96;100.00;102131.25;4994964;28;20121;-70
2022/04/10 07:38:23;;;;;;;10.32;2.13;;;;;;;5.02;100.00;102130.75;5005717;28;20034;-70
2022/04/10 07:40:48;;;;;;;5.93;1.65;;;;;;;5.12;100.00;102129.56;4989835;28;20026;-70
2022/04/10 07:43:14;;;;;;;5.03;1.73;;;;;;;5.24;100.00;102138.13;4991497;28;20094;-71
2022/04/10 07:48:23;;;;;;;9.95;1.48;;;;;;;5.73;100.00;102143.56;4989418;28;20045;-71
2022/04/10 07:50:49;;;;;;;4.07;1.60;;;;;;;5.96;100.00;102141.38;4990301;28;20105;-72
2022/04/10 07:53:14;;;;;;;6.57;1.90;;;;;;;6.18;100.00;102140.00;4992602;28;20024;-71
2022/04/10 07:55:39;;;;;;;9.50;1.70;;;;;;;6.39;100.00;102135.94;4989039;28;20046;-71
2022/04/10 07:58:06;;;;;;;5.72;1.83;;;;;;;6.58;100.00;102135.22;4989728;28;20093;-71
2022/04/10 08:00:34;;;;;;;5.38;1.20;;;;;;;6.75;98.76;102133.53;4994346;28;20064;-72
2022/04/10 08:03:00;;;;;;;9.00;1.30;;;;;;;6.91;95.43;102135.22;4993411;28;20076;-71
2022/04/10 08:05:25;;;;;;;6.20;1.05;;;;;;;7.06;88.57;102137.72;4995227;28;20421;-71
2022/04/10 08:07:51;;;;;;;5.32;1.00;;;;;;;7.13;83.22;102135.44;4997513;28;20111;-71
2022/04/10 08:10:16;;;;;;;5.15;1.08;;;;;;;7.19;84.55;102135.75;4997291;28;20057;-71
2022/04/10 08:12:43;;;;;;;5.20;1.17;;;;;;;7.19;81.69;102148.81;5002404;28;20079;-72
2022/04/10 08:15:10;;;;;;;4.20;1.40;;;;;;;7.19;85.66;102148.81;4993991;28;20035;-72
2022/04/10 08:17:36;;;;;;;7.65;1.25;;;;;;;7.18;89.33;102154.91;4994290;28;20049;-72
2022/04/10 08:20:04;;;;;;;9.55;1.40;;;;;;;7.15;91.12;102165.19;4997608;28;20394;-72
2022/04/10 08:22:32;;;;;;;19.13;3.40;;;;;;;7.03;92.27;102166.38;5015752;28;20126;-72
2022/04/10 08:25:06;;;;;;;6.85;1.63;;;;;;;7.01;93.36;102162.78;4996716;28;20121;-72
2022/04/10 08:27:31;;;;;;;10.75;1.83;;;;;;;7.08;95.15;102169.22;5014470;28;20109;-71
2022/04/10 08:29:57;;;;;;;10.48;1.67;;;;;;;7.12;95.19;102170.28;5014917;28;20555;-71
2022/04/10 08:32:23;;;;;;;4.85;1.10;;;;;;;7.37;94.71;102168.09;5015007;28;20482;-72
2022/04/10 08:34:48;;;;;;;6.80;1.42;;;;;;;7.65;88.75;102168.59;5014915;28;20101;-72
2022/04/10 08:37:13;;;;;;;5.45;1.67;;;;;;;7.87;82.01;102158.34;5014454;28;20064;-71
2022/04/10 08:39:39;;;;;;;3.28;1.00;;;;;;;7.89;76.22;102158.44;5014462;28;20457;-73
2022/04/10 08:42:06;;;;;;;6.75;1.85;;;;;;;7.86;76.70;102158.28;5015068;28;20056;-72
2022/04/10 08:44:32;;;;;;;7.40;1.20;;;;;;;7.80;75.48;102157.97;5014526;28;20021;-72
2022/04/10 08:47:00;;;;;;;3.00;1.30;;;;;;;7.94;78.44;102157.81;5014695;28;20539;-72
2022/04/10 08:49:29;;;;;;;3.45;1.42;;;;;;;8.16;77.43;102157.97;5008142;28;20466;-71
2022/04/10 08:51:56;;;;;;;7.25;1.30;;;;;;;8.39;76.44;102156.44;5017110;28;20112;-71
2022/04/10 08:54:23;;;;;;;5.93;1.30;;;;;;;8.60;75.63;102156.56;5026183;28;20026;-71
2022/04/10 08:56:50;;;;;;;9.77;1.67;;;;;;;8.78;75.63;102157.38;5005233;28;20758;-73
2022/04/10 08:59:17;;;;;;;5.13;1.13;;;;;;;8.82;71.75;102155.81;5017219;28;20030;-73
2022/04/10 09:01:42;;;;;;;2.42;0.90;;;;;;;8.64;70.38;102157.59;4999553;28;20022;-73
2022/04/10 09:04:07;;;;;;;3.60;0.93;;;;;;;8.47;69.76;102159.44;5014242;28;20032;-75
2022/04/10 09:06:38;;;;;;;2.67;1.00;;;;;;;8.39;70.04;102165.19;5011874;28;20104;-75
2022/04/10 09:09:13;;;;;;;2.30;0.90;;;;;;;8.59;72.28;102170.50;4989743;28;22199;-74
2022/04/10 09:11:40;;;;;;;6.57;1.30;;;;;;;8.74;70.65;102165.06;5019014;28;20027;-74
2022/04/10 09:14:06;;;;;;;6.93;1.40;;;;;;;8.83;71.56;102175.97;5002357;28;20034;-74
2022/04/10 09:16:31;;;;;;;5.60;1.40;;;;;;;8.95;71.33;102167.75;5014550;28;20112;-74
2022/04/10 09:19:06;;;;;;;10.23;1.48;;;;;;;9.05;70.81;102167.31;4994301;28;20521;-74
2022/04/10 09:21:34;;;;;;;5.35;1.40;;;;;;;9.15;69.76;102165.13;5012332;28;20048;-73
2022/04/10 09:24:02;;;;;;;7.18;1.20;;;;;;;9.37;70.97;102170.47;5014415;28;20078;-74
2022/04/10 09:26:51;;;;;;;6.35;1.10;;;;;;;9.49;69.12;102174.44;5012328;28;20061;-76
2022/04/10 09:29:19;;;;;;;4.38;1.27;;;;;;;9.48;63.69;102168.28;5010730;28;20025;-75
2022/04/10 09:31:45;;;;;;;3.35;1.20;;;;;;;9.53;64.85;102172.00;5009835;28;20030;-74
2022/04/10 09:34:14;;;;;;;5.22;1.08;;;;;;;9.62;66.78;102169.75;5015802;28;20040;-75
2022/04/10 09:36:41;;;;;;;5.32;1.20;;;;;;;9.76;63.60;102169.44;4985573;28;20036;-74
2022/04/10 09:39:31;;;;;;;4.97;1.20;;;;;;;9.69;64.67;102168.28;5016820;28;20034;-74
2022/04/10 09:42:07;;;;;;;6.03;1.20;;;;;;;9.85;64.26;102174.16;5017650;28;20045;-72
2022/04/10 09:44:34;;;;;;;4.38;1.00;;;;;;;10.03;62.71;102177.56;4996305;28;20030;-73
2022/04/10 09:47:02;;;;;;;5.13;1.30;;;;;;;10.19;62.65;102170.28;4999777;28;20025;-75
2022/04/10 09:49:37;;;;;;;3.85;1.10;;;;;;;10.32;62.10;102171.66;4999151;28;20041;-74
2022/04/10 09:52:11;;;;;;;4.30;1.63;;;;;;;10.50;63.51;102171.50;5010064;28;20072;-75
2022/04/10 09:54:46;;;;;;;;;;;;;;;10.62;61.29;102172.88;4996176;28;20037;-75
2022/04/10 09:57:14;;;;;;;4.03;1.35;;;;;;;10.54;60.95;102173.41;5017675;28;19988;-74
2022/04/10 09:59:40;;;;;;;5.35;1.20;;;;;;;10.31;60.51;102176.03;5015653;28;20034;-74
2022/04/10 10:02:06;;;;;;;4.32;1.98;;;;;;;10.09;61.13;102180.44;5019005;28;20025;-71
2022/04/10 10:04:35;;;;;;;4.57;1.10;;;;;;;10.07;61.95;102176.84;4995917;28;20116;-74
2022/04/10 10:07:04;;;;;;;4.70;1.33;;;;;;;10.30;61.22;102183.00;5011058;28;20025;-73
2022/04/10 10:09:31;;;;;;;6.57;1.20;;;;;;;10.39;59.91;102177.25;5009826;28;20397;-75
2022/04/10 10:11:59;;;;;;;5.72;1.38;;;;;;;10.65;61.82;102189.59;4994359;28;20096;-74
2022/04/10 10:14:24;;;;;;;3.40;1.20;;;;;;;10.70;58.01;102170.53;5012224;28;20083;-74
2022/04/10 10:16:50;;;;;;;3.75;1.13;;;;;;;10.93;57.74;102173.09;4994691;28;20026;-74
2022/04/10 10:19:16;;;;;;;3.83;1.35;;;;;;;11.05;55.85;102177.94;5007418;28;20037;-74
2022/04/10 10:21:42;;;;;;;5.97;1.15;;;;;;;11.23;54.85;102172.41;5009039;28;20050;-73
2022/04/10 10:24:10;;;;;;;7.68;1.80;;;;;;;11.27;56.04;102169.03;5013617;28;20029;-74
2022/04/10 10:26:54;;;;;;;7.28;1.10;;;;;;;11.43;56.68;102167.84;5015910;28;20067;-73
2022/04/10 10:29:56;;;;;;;3.20;1.02;;;;;;;11.42;54.77;102168.66;5013977;28;20382;-74
2022/04/10 10:32:44;;;;;;;2.97;1.02;;;;;;;11.60;55.77;102176.34;5012803;28;20041;-73
2022/04/10 10:35:12;;;;;;;3.65;1.02;;;;;;;11.88;53.01;102175.50;5012633;28;20061;-73
2022/04/10 10:37:52;;;;;;;3.08;0.88;;;;;;;12.10;52.49;102171.84;5013267;28;20041;-72
2022/04/10 10:40:18;;;;;;;4.90;1.38;;;;;;;12.24;59.96;102179.31;4995292;28;20108;-72
2022/04/10 10:42:45;;;;;;;4.97;1.13;;;;;;;12.47;54.06;102175.63;4994203;28;20196;-72
2022/04/10 10:45:11;;;;;;;3.45;1.08;;;;;;;12.64;54.24;102180.50;4993433;28;20053;-73
2022/04/10 10:47:36;;;;;;;5.15;1.00;;;;;;;12.63;49.56;102163.78;5010980;28;20021;-73
2022/04/10 10:50:26;;;;;;;3.58;0.90;;;;;;;12.48;47.74;102164.22;4995628;28;20038;-74
2022/04/10 10:53:07;;;;;;;3.10;1.05;;;;;;;12.52;48.51;102164.28;5015423;28;20129;-73
2022/04/10 10:55:45;;;;;;;3.70;1.17;;;;;;;12.52;45.57;102164.28;4993526;28;20026;-73
2022/04/10 10:58:15;;;;;;;5.65;1.13;;;;;;;12.63;48.56;102165.53;5006709;28;20044;-71
2022/04/10 11:00:40;;;;;;;4.35;1.42;;;;;;;12.72;47.10;102162.25;5005049;28;20026;-72
2022/04/10 11:03:09;;;;;;;3.28;1.02;;;;;;;12.82;45.34;102154.63;5011130;28;20037;-73
2022/04/10 11:05:35;;;;;;;4.10;1.00;;;;;;;13.04;48.13;102155.22;5020270;28;20406;-72
2022/04/10 11:08:07;;;;;;;2.72;0.75;;;;;;;13.17;49.30;102156.44;5021068;28;20056;-72
2022/04/10 11:10:50;;;;;;;3.75;1.10;;;;;;;12.93;45.75;102149.66;5021280;28;20493;-73
2022/04/10 11:13:16;;;;;;;7.05;1.23;;;;;;;12.55;44.92;102138.00;5008563;28;20026;-73
2022/04/10 11:15:47;;;;;;;4.50;1.20;;;;;;;12.05;47.09;102141.78;5024910;28;20032;-73
2022/04/10 11:18:36;;;;;;;6.07;0.95;;;;;;;12.26;49.66;102140.66;5008552;28;20044;-72
2022/04/10 11:21:28;;;;;;;3.65;1.30;;;;;;;12.13;54.04;102145.53;5007454;28;20401;-72
2022/04/10 11:23:57;;;;;;;3.83;1.20;;;;;;;13.04;58.32;102149.06;5003053;28;20038;-73
2022/04/10 11:26:22;;;;;;;5.95;1.10;;;;;;;13.23;55.10;102148.69;4989161;28;20030;-73